PWSweather.com
Personal Weather Stations
Station Observations
KMNGREYC2
Grey Cloud Island, Grey Cloud Island, MN 55071

Grey Cloud IslandGrey Cloud Island, MN 55071

Lat: 44.799333, Lon: -92.987851

Elevation: 700

Station Type: Davis VP2

www.jagielski.com/weather/conditions.htm

High Low Average
Temperature 13.4°F-10.3°C -0.3°F-17.9°C 6.0°F-14.4°C
Dew Point 5.8°F-14.6°C -4.0°F-20.0°C 0.2°F-17.7°C
Winds 8.0 mph 12.9 kmh Calm Calm 1.0 mph W1.6 kmh W
Wind Gusts 19.0 mph30.6 kmh -- 5.0 mph8.0 kmh
Humidity 84% 67% 77%
Pressure 30.48 in1032.2 mb 30.23 in1023.7 mb -
Precipitation 0.00 in0.0 mm - -
Hour Temp Dew Point Humidity Winds Wind Gusts Pressure Precip Precip Rate Daily Precip Total
12:00 AM 15.4°F-9.2°C 8.6°F-13.0°C 74% 2.0 mph NW3.2 kmh NW 12.0 mph19.3 kmh 30.20 in1022.7 mb 0.00 in0.0 mm 0.00 in0.0 mm 0.00 in0.0 mm
12:15 AM 14.5°F-9.7°C 7.4°F-13.7°C 73% 4.0 mph NNW6.4 kmh NNW 14.0 mph22.5 kmh 30.20 in1022.7 mb 0.00 in0.0 mm 0.00 in0.0 mm 0.00 in0.0 mm
12:30 AM 14.0°F-10.0°C 7.3°F-13.7°C 74% 1.0 mph W1.6 kmh W 14.0 mph22.5 kmh 30.22 in1023.4 mb 0.00 in0.0 mm 0.00 in0.0 mm 0.00 in0.0 mm
12:45 AM 13.2°F-10.4°C 6.2°F-14.3°C 73% 4.0 mph NW6.4 kmh NW 19.0 mph30.6 kmh 30.22 in1023.4 mb 0.00 in0.0 mm 0.00 in0.0 mm 0.00 in0.0 mm
01:00 AM 12.5°F-10.8°C 5.8°F-14.6°C 74% 1.0 mph NE1.6 kmh NE 19.0 mph30.6 kmh 30.23 in1023.7 mb 0.00 in0.0 mm 0.00 in0.0 mm 0.00 in0.0 mm
01:15 AM 12.0°F-11.1°C 5.0°F-15.0°C 73% 3.0 mph NW4.8 kmh NW 10.0 mph16.1 kmh 30.24 in1024.0 mb 0.00 in0.0 mm 0.00 in0.0 mm 0.00 in0.0 mm
01:30 AM 11.4°F-11.4°C 4.4°F-15.3°C 73% 1.0 mph WNW1.6 kmh WNW 10.0 mph16.1 kmh 30.25 in1024.4 mb 0.00 in0.0 mm 0.00 in0.0 mm 0.00 in0.0 mm
01:45 AM 11.0°F-11.7°C 4.4°F-15.3°C 74% 5.0 mph NNE8.0 kmh NNE 12.0 mph19.3 kmh 30.27 in1025.1 mb 0.00 in0.0 mm 0.00 in0.0 mm 0.00 in0.0 mm
02:00 AM 10.6°F-11.9°C 3.7°F-15.7°C 73% 4.0 mph N6.4 kmh N 12.0 mph19.3 kmh 30.29 in1025.7 mb 0.00 in0.0 mm 0.00 in0.0 mm 0.00 in0.0 mm
02:15 AM 10.5°F-11.9°C 4.2°F-15.4°C 75% 2.0 mph WNW3.2 kmh WNW 9.0 mph14.5 kmh 30.30 in1026.1 mb 0.00 in0.0 mm 0.00 in0.0 mm 0.00 in0.0 mm
02:30 AM 10.3°F-12.1°C 3.7°F-15.7°C 74% 7.0 mph W11.3 kmh W 11.0 mph17.7 kmh 30.30 in1026.1 mb 0.00 in0.0 mm 0.00 in0.0 mm 0.00 in0.0 mm
02:45 AM 10.0°F-12.2°C 3.7°F-15.7°C 75% 4.0 mph NNW6.4 kmh NNW 9.0 mph14.5 kmh 30.31 in1026.4 mb 0.00 in0.0 mm 0.00 in0.0 mm 0.00 in0.0 mm
03:00 AM 9.9°F-12.3°C 3.6°F-15.8°C 75% 2.0 mph NNW3.2 kmh NNW 9.0 mph14.5 kmh 30.32 in1026.8 mb 0.00 in0.0 mm 0.00 in0.0 mm 0.00 in0.0 mm
03:15 AM 9.4°F-12.6°C 3.1°F-16.1°C 75% 8.0 mph NW12.9 kmh NW 8.0 mph12.9 kmh 30.32 in1026.8 mb 0.00 in0.0 mm 0.00 in0.0 mm 0.00 in0.0 mm
03:30 AM 9.1°F-12.7°C 2.8°F-16.2°C 75% 1.0 mph N1.6 kmh N 8.0 mph12.9 kmh 30.33 in1027.1 mb 0.00 in0.0 mm 0.00 in0.0 mm 0.00 in0.0 mm
03:45 AM 8.7°F-12.9°C 2.4°F-16.4°C 75% 2.0 mph NNW3.2 kmh NNW 8.0 mph12.9 kmh 30.33 in1027.1 mb 0.00 in0.0 mm 0.00 in0.0 mm 0.00 in0.0 mm
04:00 AM 8.3°F-13.2°C 2.3°F-16.5°C 76% Calm Calm 8.0 mph12.9 kmh 30.34 in1027.4 mb 0.00 in0.0 mm 0.00 in0.0 mm 0.00 in0.0 mm
04:15 AM 8.0°F-13.3°C 2.0°F-16.7°C 76% 2.0 mph NW3.2 kmh NW 9.0 mph14.5 kmh 30.34 in1027.4 mb 0.00 in0.0 mm 0.00 in0.0 mm 0.00 in0.0 mm
04:30 AM 7.6°F-13.6°C 1.6°F-16.9°C 76% Calm Calm 9.0 mph14.5 kmh 30.34 in1027.4 mb 0.00 in0.0 mm 0.00 in0.0 mm 0.00 in0.0 mm
04:45 AM 7.2°F-13.8°C 1.5°F-16.9°C 77% 2.0 mph N3.2 kmh N 8.0 mph12.9 kmh 30.34 in1027.4 mb 0.00 in0.0 mm 0.00 in0.0 mm 0.00 in0.0 mm
05:00 AM 6.9°F-13.9°C 1.0°F-17.2°C 76% 6.0 mph NNW9.7 kmh NNW 8.0 mph12.9 kmh 30.36 in1028.1 mb 0.00 in0.0 mm 0.00 in0.0 mm 0.00 in0.0 mm
05:15 AM 6.3°F-14.3°C 0.4°F-17.6°C 76% Calm Calm 7.0 mph11.3 kmh 30.36 in1028.1 mb 0.00 in0.0 mm 0.00 in0.0 mm 0.00 in0.0 mm
05:30 AM 6.0°F-14.4°C 0.4°F-17.6°C 77% 1.0 mph NNW1.6 kmh NNW 9.0 mph14.5 kmh 30.37 in1028.4 mb 0.00 in0.0 mm 0.00 in0.0 mm 0.00 in0.0 mm
05:45 AM 5.5°F-14.7°C -0.4°F-18.0°C 76% Calm Calm 9.0 mph14.5 kmh 30.36 in1028.1 mb 0.00 in0.0 mm 0.00 in0.0 mm 0.00 in0.0 mm
06:00 AM 5.2°F-14.9°C -0.4°F-18.0°C 77% 2.0 mph N3.2 kmh N 9.0 mph14.5 kmh 30.35 in1027.8 mb 0.00 in0.0 mm 0.00 in0.0 mm 0.00 in0.0 mm
06:15 AM 4.9°F-15.1°C -0.4°F-18.0°C 78% 1.0 mph N1.6 kmh N 4.0 mph6.4 kmh 30.35 in1027.8 mb 0.00 in0.0 mm 0.00 in0.0 mm 0.00 in0.0 mm
06:30 AM 4.4°F-15.3°C -1.2°F-18.4°C 77% 3.0 mph N4.8 kmh N 6.0 mph9.7 kmh 30.36 in1028.1 mb 0.00 in0.0 mm 0.00 in0.0 mm 0.00 in0.0 mm
06:45 AM 4.0°F-15.6°C -1.6°F-18.7°C 77% Calm Calm 6.0 mph9.7 kmh 30.37 in1028.4 mb 0.00 in0.0 mm 0.00 in0.0 mm 0.00 in0.0 mm
07:00 AM 3.7°F-15.7°C -1.6°F-18.7°C 78% 1.0 mph NNW1.6 kmh NNW 6.0 mph9.7 kmh 30.39 in1029.1 mb 0.00 in0.0 mm 0.00 in0.0 mm 0.00 in0.0 mm
07:15 AM 3.5°F-15.8°C -1.8°F-18.8°C 78% Calm Calm 5.0 mph8.0 kmh 30.40 in1029.5 mb 0.00 in0.0 mm 0.00 in0.0 mm 0.00 in0.0 mm
07:30 AM 3.3°F-15.9°C -2.0°F-18.9°C 78% Calm Calm 5.0 mph8.0 kmh 30.41 in1029.8 mb 0.00 in0.0 mm 0.00 in0.0 mm 0.00 in0.0 mm
07:45 AM 3.1°F-16.1°C -2.2°F-19.0°C 78% Calm Calm 3.0 mph4.8 kmh 30.42 in1030.1 mb 0.00 in0.0 mm 0.00 in0.0 mm 0.00 in0.0 mm
08:00 AM 2.9°F-16.2°C -2.4°F-19.1°C 78% 3.0 mph NNW4.8 kmh NNW 4.0 mph6.4 kmh 30.42 in1030.1 mb 0.00 in0.0 mm 0.00 in0.0 mm 0.00 in0.0 mm
08:15 AM 2.6°F-16.3°C -2.7°F-19.3°C 78% Calm Calm 5.0 mph8.0 kmh 30.43 in1030.5 mb 0.00 in0.0 mm 0.00 in0.0 mm 0.00 in0.0 mm
08:30 AM 2.3°F-16.5°C -3.0°F-19.4°C 78% Calm Calm 7.0 mph11.3 kmh 30.44 in1030.8 mb 0.00 in0.0 mm 0.00 in0.0 mm 0.00 in0.0 mm
08:45 AM 2.3°F-16.5°C -2.7°F-19.3°C 79% Calm Calm 5.0 mph8.0 kmh 30.45 in1031.2 mb 0.00 in0.0 mm 0.00 in0.0 mm 0.00 in0.0 mm
09:00 AM 2.0°F-16.7°C -3.0°F-19.4°C 79% 3.0 mph NW4.8 kmh NW 8.0 mph12.9 kmh 30.47 in1031.8 mb 0.00 in0.0 mm 0.00 in0.0 mm 0.00 in0.0 mm
09:15 AM 2.0°F-16.7°C -3.0°F-19.4°C 79% Calm Calm 4.0 mph6.4 kmh 30.47 in1031.8 mb 0.00 in0.0 mm 0.00 in0.0 mm 0.00 in0.0 mm
09:30 AM 1.9°F-16.7°C -3.4°F-19.7°C 78% 2.0 mph NW3.2 kmh NW 5.0 mph8.0 kmh 30.48 in1032.2 mb 0.00 in0.0 mm 0.00 in0.0 mm 0.00 in0.0 mm
09:45 AM 1.8°F-16.8°C -3.5°F-19.7°C 78% 2.0 mph NW3.2 kmh NW 4.0 mph6.4 kmh 30.48 in1032.2 mb 0.00 in0.0 mm 0.00 in0.0 mm 0.00 in0.0 mm
10:00 AM 1.8°F-16.8°C -3.5°F-19.7°C 78% 3.0 mph WNW4.8 kmh WNW 7.0 mph11.3 kmh 30.48 in1032.2 mb 0.00 in0.0 mm 0.00 in0.0 mm 0.00 in0.0 mm
10:15 AM 1.7°F-16.8°C -3.6°F-19.8°C 78% Calm Calm 6.0 mph9.7 kmh 30.48 in1032.2 mb 0.00 in0.0 mm 0.00 in0.0 mm 0.00 in0.0 mm
10:30 AM 1.6°F-16.9°C -3.7°F-19.8°C 78% 5.0 mph N8.0 kmh N 6.0 mph9.7 kmh 30.48 in1032.2 mb 0.00 in0.0 mm 0.00 in0.0 mm 0.00 in0.0 mm
10:45 AM 1.8°F-16.8°C -3.5°F-19.7°C 78% 2.0 mph NW3.2 kmh NW 7.0 mph11.3 kmh 30.48 in1032.2 mb 0.00 in0.0 mm 0.00 in0.0 mm 0.00 in0.0 mm
11:00 AM 2.2°F-16.6°C -3.1°F-19.5°C 78% 2.0 mph N3.2 kmh N 9.0 mph14.5 kmh 30.48 in1032.2 mb 0.00 in0.0 mm 0.00 in0.0 mm 0.00 in0.0 mm
11:15 AM 2.5°F-16.4°C -2.8°F-19.3°C 78% Calm Calm 6.0 mph9.7 kmh 30.47 in1031.8 mb 0.00 in0.0 mm 0.00 in0.0 mm 0.00 in0.0 mm
11:30 AM 2.8°F-16.2°C -2.5°F-19.2°C 78% Calm Calm 8.0 mph12.9 kmh 30.47 in1031.8 mb 0.00 in0.0 mm 0.00 in0.0 mm 0.00 in0.0 mm
11:45 AM 3.4°F-15.9°C -2.2°F-19.0°C 77% 3.0 mph NW4.8 kmh NW 6.0 mph9.7 kmh 30.47 in1031.8 mb 0.00 in0.0 mm 0.00 in0.0 mm 0.00 in0.0 mm
12:00 PM 4.0°F-15.6°C -1.6°F-18.7°C 77% 1.0 mph NW1.6 kmh NW 6.0 mph9.7 kmh 30.46 in1031.5 mb 0.00 in0.0 mm 0.00 in0.0 mm 0.00 in0.0 mm
12:15 PM 4.9°F-15.1°C -0.7°F-18.2°C 77% Calm Calm 5.0 mph8.0 kmh 30.46 in1031.5 mb 0.00 in0.0 mm 0.00 in0.0 mm 0.00 in0.0 mm
12:30 PM 6.0°F-14.4°C 0.4°F-17.6°C 77% 2.0 mph NW3.2 kmh NW 5.0 mph8.0 kmh 30.44 in1030.8 mb 0.00 in0.0 mm 0.00 in0.0 mm 0.00 in0.0 mm
12:45 PM 6.6°F-14.1°C 0.7°F-17.4°C 76% 3.0 mph NW4.8 kmh NW 4.0 mph6.4 kmh 30.44 in1030.8 mb 0.00 in0.0 mm 0.00 in0.0 mm 0.00 in0.0 mm
01:00 PM 6.9°F-13.9°C 1.0°F-17.2°C 76% 1.0 mph NW1.6 kmh NW 4.0 mph6.4 kmh 30.44 in1030.8 mb 0.00 in0.0 mm 0.00 in0.0 mm 0.00 in0.0 mm
01:15 PM 7.6°F-13.6°C 1.9°F-16.7°C 77% 2.0 mph NW3.2 kmh NW 4.0 mph6.4 kmh 30.43 in1030.5 mb 0.00 in0.0 mm 0.00 in0.0 mm 0.00 in0.0 mm
01:30 PM 8.0°F-13.3°C 2.0°F-16.7°C 76% 3.0 mph NW4.8 kmh NW 5.0 mph8.0 kmh 30.43 in1030.5 mb 0.00 in0.0 mm 0.00 in0.0 mm 0.00 in0.0 mm
01:45 PM 8.2°F-13.2°C 2.2°F-16.6°C 76% Calm Calm 4.0 mph6.4 kmh 30.42 in1030.1 mb 0.00 in0.0 mm 0.00 in0.0 mm 0.00 in0.0 mm
02:00 PM 8.8°F-12.9°C 2.8°F-16.2°C 76% 1.0 mph NW1.6 kmh NW 4.0 mph6.4 kmh 30.41 in1029.8 mb 0.00 in0.0 mm 0.00 in0.0 mm 0.00 in0.0 mm
02:15 PM 9.1°F-12.7°C 2.8°F-16.2°C 75% Calm Calm 2.0 mph3.2 kmh 30.41 in1029.8 mb 0.00 in0.0 mm 0.00 in0.0 mm 0.00 in0.0 mm
02:30 PM 9.7°F-12.4°C 3.4°F-15.9°C 75% Calm Calm 3.0 mph4.8 kmh 30.40 in1029.5 mb 0.00 in0.0 mm 0.00 in0.0 mm 0.00 in0.0 mm
02:45 PM 10.7°F-11.8°C 3.8°F-15.7°C 73% Calm Calm 6.0 mph9.7 kmh 30.40 in1029.5 mb 0.00 in0.0 mm 0.00 in0.0 mm 0.00 in0.0 mm
03:00 PM 11.1°F-11.6°C 3.9°F-15.6°C 72% Calm Calm 6.0 mph9.7 kmh 30.40 in1029.5 mb 0.00 in0.0 mm 0.00 in0.0 mm 0.00 in0.0 mm
03:15 PM 11.3°F-11.5°C 3.7°F-15.7°C 71% 2.0 mph WSW3.2 kmh WSW 4.0 mph6.4 kmh 30.40 in1029.5 mb 0.00 in0.0 mm 0.00 in0.0 mm 0.00 in0.0 mm
03:30 PM 11.9°F-11.2°C 4.3°F-15.4°C 71% 3.0 mph WSW4.8 kmh WSW 5.0 mph8.0 kmh 30.40 in1029.5 mb 0.00 in0.0 mm 0.00 in0.0 mm 0.00 in0.0 mm
03:45 PM 12.9°F-10.6°C 5.0°F-15.0°C 70% 3.0 mph WSW4.8 kmh WSW 5.0 mph8.0 kmh 30.40 in1029.5 mb 0.00 in0.0 mm 0.00 in0.0 mm 0.00 in0.0 mm
04:00 PM 13.4°F-10.3°C 4.8°F-15.1°C 68% Calm Calm 6.0 mph9.7 kmh 30.39 in1029.1 mb 0.00 in0.0 mm 0.00 in0.0 mm 0.00 in0.0 mm
04:15 PM 13.4°F-10.3°C 4.5°F-15.3°C 67% 3.0 mph WSW4.8 kmh WSW 5.0 mph8.0 kmh 30.39 in1029.1 mb 0.00 in0.0 mm 0.00 in0.0 mm 0.00 in0.0 mm
04:30 PM 12.8°F-10.7°C 3.9°F-15.6°C 67% 3.0 mph WSW4.8 kmh WSW 6.0 mph9.7 kmh 30.39 in1029.1 mb 0.00 in0.0 mm 0.00 in0.0 mm 0.00 in0.0 mm
04:45 PM 12.5°F-10.8°C 4.0°F-15.6°C 68% 2.0 mph WSW3.2 kmh WSW 4.0 mph6.4 kmh 30.38 in1028.8 mb 0.00 in0.0 mm 0.00 in0.0 mm 0.00 in0.0 mm
05:00 PM 12.1°F-11.1°C 3.6°F-15.8°C 68% 1.0 mph WSW1.6 kmh WSW 4.0 mph6.4 kmh 30.38 in1028.8 mb 0.00 in0.0 mm 0.00 in0.0 mm 0.00 in0.0 mm
05:15 PM 11.6°F-11.3°C 3.4°F-15.9°C 69% 1.0 mph WSW1.6 kmh WSW 3.0 mph4.8 kmh 30.37 in1028.4 mb 0.00 in0.0 mm 0.00 in0.0 mm 0.00 in0.0 mm
05:30 PM 11.2°F-11.6°C 3.3°F-15.9°C 70% Calm Calm 3.0 mph4.8 kmh 30.37 in1028.4 mb 0.00 in0.0 mm 0.00 in0.0 mm 0.00 in0.0 mm
05:45 PM 10.8°F-11.8°C 3.6°F-15.8°C 72% Calm Calm 1.0 mph1.6 kmh 30.37 in1028.4 mb 0.00 in0.0 mm 0.00 in0.0 mm 0.00 in0.0 mm
06:00 PM 10.0°F-12.2°C 2.5°F-16.4°C 71% Calm Calm 1.0 mph1.6 kmh 30.37 in1028.4 mb 0.00 in0.0 mm 0.00 in0.0 mm 0.00 in0.0 mm
06:15 PM 9.0°F-12.8°C 1.8°F-16.8°C 72% Calm Calm -- 30.37 in1028.4 mb 0.00 in0.0 mm 0.00 in0.0 mm 0.00 in0.0 mm
06:30 PM 8.1°F-13.3°C 1.3°F-17.1°C 73% Calm Calm -- 30.37 in1028.4 mb 0.00 in0.0 mm 0.00 in0.0 mm 0.00 in0.0 mm
06:45 PM 7.2°F-13.8°C 0.7°F-17.4°C 74% Calm Calm -- 30.37 in1028.4 mb 0.00 in0.0 mm 0.00 in0.0 mm 0.00 in0.0 mm
07:00 PM 6.2°F-14.3°C 0.0°F-17.8°C 75% Calm Calm -- 30.37 in1028.4 mb 0.00 in0.0 mm 0.00 in0.0 mm 0.00 in0.0 mm
07:15 PM 5.5°F-14.7°C -0.4°F-18.0°C 76% Calm Calm -- 30.36 in1028.1 mb 0.00 in0.0 mm 0.00 in0.0 mm 0.00 in0.0 mm
07:30 PM 4.9°F-15.1°C -0.4°F-18.0°C 78% Calm Calm -- 30.36 in1028.1 mb 0.00 in0.0 mm 0.00 in0.0 mm 0.00 in0.0 mm
07:45 PM 4.6°F-15.2°C -0.7°F-18.2°C 78% Calm Calm -- 30.36 in1028.1 mb 0.00 in0.0 mm 0.00 in0.0 mm 0.00 in0.0 mm
08:00 PM 4.2°F-15.4°C -0.9°F-18.3°C 79% Calm Calm -- 30.36 in1028.1 mb 0.00 in0.0 mm 0.00 in0.0 mm 0.00 in0.0 mm
08:15 PM 3.7°F-15.7°C -1.1°F-18.4°C 80% Calm Calm -- 30.36 in1028.1 mb 0.00 in0.0 mm 0.00 in0.0 mm 0.00 in0.0 mm
08:30 PM 3.3°F-15.9°C -1.5°F-18.6°C 80% Calm Calm -- 30.36 in1028.1 mb 0.00 in0.0 mm 0.00 in0.0 mm 0.00 in0.0 mm
08:45 PM 2.9°F-16.2°C -1.6°F-18.7°C 81% Calm Calm -- 30.36 in1028.1 mb 0.00 in0.0 mm 0.00 in0.0 mm 0.00 in0.0 mm
09:00 PM 2.6°F-16.3°C -1.9°F-18.8°C 81% Calm Calm -- 30.36 in1028.1 mb 0.00 in0.0 mm 0.00 in0.0 mm 0.00 in0.0 mm
09:15 PM 2.3°F-16.5°C -1.9°F-18.8°C 82% 1.0 mph WSW1.6 kmh WSW 3.0 mph4.8 kmh 30.34 in1027.4 mb 0.00 in0.0 mm 0.00 in0.0 mm 0.00 in0.0 mm
09:30 PM 2.3°F-16.5°C -1.7°F-18.7°C 83% 1.0 mph WSW1.6 kmh WSW 3.0 mph4.8 kmh 30.34 in1027.4 mb 0.00 in0.0 mm 0.00 in0.0 mm 0.00 in0.0 mm
09:45 PM 2.6°F-16.3°C -1.1°F-18.4°C 84% Calm Calm 3.0 mph4.8 kmh 30.33 in1027.1 mb 0.00 in0.0 mm 0.00 in0.0 mm 0.00 in0.0 mm
10:00 PM 2.7°F-16.3°C -1.0°F-18.3°C 84% Calm Calm 3.0 mph4.8 kmh 30.33 in1027.1 mb 0.00 in0.0 mm 0.00 in0.0 mm 0.00 in0.0 mm
10:15 PM 2.5°F-16.4°C -1.2°F-18.4°C 84% Calm Calm -- 30.31 in1026.4 mb 0.00 in0.0 mm 0.00 in0.0 mm 0.00 in0.0 mm
10:30 PM 2.3°F-16.5°C -1.7°F-18.7°C 83% Calm Calm -- 30.30 in1026.1 mb 0.00 in0.0 mm 0.00 in0.0 mm 0.00 in0.0 mm
10:45 PM 2.0°F-16.7°C -2.0°F-18.9°C 83% Calm Calm -- 30.30 in1026.1 mb 0.00 in0.0 mm 0.00 in0.0 mm 0.00 in0.0 mm
11:00 PM 1.7°F-16.8°C -2.3°F-19.1°C 83% Calm Calm -- 30.28 in1025.4 mb 0.00 in0.0 mm 0.00 in0.0 mm 0.00 in0.0 mm
11:15 PM 1.4°F-17.0°C -2.6°F-19.2°C 83% Calm Calm -- 30.28 in1025.4 mb 0.00 in0.0 mm 0.00 in0.0 mm 0.00 in0.0 mm
11:30 PM 1.1°F-17.2°C -2.9°F-19.4°C 83% Calm Calm -- 30.28 in1025.4 mb 0.00 in0.0 mm 0.00 in0.0 mm 0.00 in0.0 mm
11:45 PM 0.5°F-17.5°C -3.4°F-19.7°C 83% Calm Calm -- 30.27 in1025.1 mb 0.00 in0.0 mm 0.00 in0.0 mm 0.00 in0.0 mm